Atlantic - Newfoundland: Past 24 Hour Conditions

 

St. John's Int'l Airport

03:30 PM NDT 29 August 2014
This table is a summary of hourly weather conditions for the past 24 hours.
Date / Time
(NDT)
Wind(knots) Conditions Visibility(km) Pressure(kPa) Air tempC) Relative humidity(%) Dew pointC)
29 August 2014
15:30 N 20 gust 29 Mostly Cloudy 24 100.7 10 89 8
14:30 N 24 gust 33 Mostly Cloudy 24 100.5 10 93 9
13:30 NNE 24 gust 33 Light Rain 16 100.4 10 97 10
12:30 NNE 22 gust 34 Light Rain 5 100.4 10 98 10
11:30 NNE 22 gust 36 Light Rain 5 100.4 10 99 10
10:30 NNE 19 gust 31 Light Rain 4 100.3 10 99 10
9:30 NNE 25 gust 35 Light Rain 2 100.2 10 100 10
8:30 NNE 24 gust 33 Drizzle 0.8 100.2 11 100 11
7:30 NE 20 gust 33 Light Drizzle 0.4 100.2 11 100 11
6:30 NE 19 gust 29 Light Drizzle 3 100.2 11 100 11
5:30 NE 20 gust 28 Light Drizzle 13 100.3 11 100 11
4:30 NE 16 gust 26 Light Drizzle 3 100.3 11 100 11
3:30 NE 15 gust 24 Light Rain 3 100.4 12 100 12
2:30 NE 19 gust 27 Light Rain 2 100.4 12 100 12
1:30 NE 15 gust 20 Light Rain 0.8 100.6 12 100 12
0:30 NE 16 gust 25 Light Rain 0.8 100.6 12 100 12
28 August 2014
23:30 NE 15 gust 21 Light Rain 2 100.7 12 100 12
22:30 ENE 11 gust 16 Light Rain 5 100.7 12 100 12
21:30 ENE 12 gust 18 Light Rain 2 100.8 12 100 12
20:30 ENE 13 Light Rain 3 100.8 12 100 12
19:30 ENE 14 Light Rain 2 100.8 12 100 12
18:30 ENE 15 Light Drizzle 3 100.8 12 100 12
17:30 ENE 14 Rain 2 100.9 11 100 11
16:30 NE 11 Light Rain 2 100.9 12 100 12
15:30 ENE 14 Light Rain 0.4 101.0 12 100 12
 
Map of Atlantic - Newfoundland marine weather areas Southwestern Grand Banks - 44138 Banquereau - 44139 Tail of the Bank - 44140 Nickerson Bank - 44251 Northeast Burgeo Bank - 44255 Blanc-Sablon Airport Cap Whittle Chevery Natashquan Airport Heath Point Miscou Island Grand Étang Ingonish Beach North Mountain St.Paul Island J.A. Douglas McCurdy Sydney Airport Charlottetown Airport East Point North Cape Argentia Bonavista Burgeo Cape Race Corner Brook Daniel's Harbour Englee Ferolle Point La Scie Port aux Basques Rocky Harbour Sagona Island St. Anthony Airport St. John's Int'l Airport St. Lawrence Stephenville Airport Twillingate Winterland Wreckhouse Cartwright Airport Mary's Harbour Grates Cove Pool's Island Marticot Island Long Pond Îles de la Madeleine Airport
Legend: buoyBuoy land stationLand Station